»·PEaware :: SWA4372 KSLC-KDEN

SWA4372 :: KSLC-KDEN

FLIGHT INFORMATION

Flight Status: Arrived
Operator:
Southwest Airlines
More flights by this operator :: More flights under this callsign
Pilot: Paul A. (20189)
Aircraft: BOEING 737-700
(B737)
More flights by this aircraft type
Origin: KSLC Salt Lake City Intl
United States
Destination: KDEN Denver Intl
United States
More flights between these airports :: More routes between these airports
Route: RUGGD1 PERTY CHE FRNCH3
File this flight plan on PilotEdge
Remarks:
Altitude:
(Current/Filed)
35,000ft
Speed:
(Current/Filed)
455kts
Departed: 10-Oct-18 07:35 AM
Arrived: 10-Oct-18 08:37 AM
Distance/Time
Traveled:
339nm/1:01
Distance/Time
To Go:
Arrived

Flight Plot

Page will automatically refresh every two minutes.

Flight plan parsing failed; only flown route is shown


Map Options




Map Legend


Flown Route
Filed Route
Departure Airport
Arrival Airport
Navaid (VOR, NDB)
Fix

Horizontal Profiles

Position Reports

Time Latitude Longitude Heading Altitude Ground
Speed
10-Oct-18 07:20 40.788193 -111.977842 265 4234ft 0kts
10-Oct-18 07:21 40.788193 -111.977842 265 4234ft 0kts
10-Oct-18 07:22 40.788193 -111.977842 265 4234ft 0kts
10-Oct-18 07:23 40.788193 -111.977842 265 4234ft 0kts
10-Oct-18 07:24 40.788193 -111.977842 265 4234ft 0kts
10-Oct-18 07:25 40.788193 -111.977842 265 4234ft 0kts
10-Oct-18 07:26 40.788193 -111.977842 265 4234ft 0kts
10-Oct-18 07:27 40.788193 -111.977842 265 4234ft 0kts
10-Oct-18 07:28 40.788193 -111.977842 265 4234ft 0kts
10-Oct-18 07:29 40.788280 -111.977096 240 4234ft 2kts
10-Oct-18 07:30 40.788490 -111.976826 206 4234ft 0kts
10-Oct-18 07:31 40.788490 -111.976826 206 4234ft 0kts
10-Oct-18 07:32 40.788490 -111.976826 206 4234ft 0kts
10-Oct-18 07:33 40.788282 -111.976910 186 4234ft 7kts
10-Oct-18 07:34 40.782357 -111.976257 174 4235ft 19kts
10-Oct-18 07:35 40.776583 -111.975140 175 4234ft 16kts
10-Oct-18 07:36 40.774506 -111.974801 128 4234ft 0kts
10-Oct-18 07:37 40.777309 -111.973410 354 4235ft 65kts
10-Oct-18 07:38 40.818683 -111.983110 334 5389ft 196kts
10-Oct-18 07:39 40.866933 -112.016729 332 7564ft 228kts
10-Oct-18 07:40 40.929625 -112.059896 332 10317ft 264kts
10-Oct-18 07:41 40.999739 -112.052198 26 12573ft 277kts
10-Oct-18 07:42 41.058096 -111.985321 58 15854ft 293kts
10-Oct-18 07:43 41.097827 -111.875943 64 17400ft 370kts
10-Oct-18 07:44 41.117412 -111.737360 108 19761ft 407kts
10-Oct-18 07:45 41.046929 -111.616665 133 22291ft 425kts
10-Oct-18 07:46 40.968410 -111.495326 129 24483ft 442kts
10-Oct-18 07:47 40.905313 -111.353966 104 26309ft 460kts
10-Oct-18 07:48 40.883488 -111.185441 98 27953ft 473kts
10-Oct-18 07:49 40.862447 -111.009601 98 29123ft 492kts
10-Oct-18 07:50 40.841008 -110.829863 98 30677ft 496kts
10-Oct-18 07:51 40.818980 -110.649134 98 32131ft 500kts
10-Oct-18 07:52 40.796376 -110.467292 98 33422ft 504kts
10-Oct-18 07:53 40.773567 -110.284384 98 34664ft 507kts
10-Oct-18 07:54 40.749779 -110.099985 99 34919ft 509kts
10-Oct-18 07:55 40.732631 -109.915306 94 34910ft 506kts
10-Oct-18 07:56 40.717626 -109.699777 95 34901ft 505kts
10-Oct-18 07:57 40.706537 -109.546269 95 34898ft 505kts
10-Oct-18 07:58 40.693273 -109.362461 95 34897ft 503kts
10-Oct-18 07:59 40.679427 -109.178878 96 34904ft 503kts
10-Oct-18 08:00 40.665256 -108.995953 96 34908ft 502kts
10-Oct-18 08:01 40.650754 -108.812839 96 34913ft 502kts
10-Oct-18 08:02 40.635964 -108.629853 97 34929ft 503kts
10-Oct-18 08:03 40.620879 -108.446949 97 34930ft 503kts
10-Oct-18 08:04 40.605424 -108.263142 97 34931ft 504kts
10-Oct-18 08:05 40.589693 -108.079576 98 34932ft 505kts
10-Oct-18 08:06 40.573675 -107.896036 98 34902ft 506kts
10-Oct-18 08:07 40.557364 -107.711807 98 34895ft 506kts
10-Oct-18 08:08 40.540913 -107.528116 98 34890ft 505kts
10-Oct-18 08:09 40.523867 -107.345229 99 34897ft 504kts
10-Oct-18 08:10 40.511917 -107.161779 95 34209ft 504kts
10-Oct-18 08:11 40.502225 -106.977899 96 33207ft 500kts
10-Oct-18 08:12 40.492356 -106.796815 96 32210ft 496kts
10-Oct-18 08:13 40.482695 -106.616796 96 31211ft 491kts
10-Oct-18 08:14 40.472117 -106.438199 97 30209ft 486kts
10-Oct-18 08:15 40.461661 -106.262877 97 29208ft 478kts
10-Oct-18 08:16 40.450947 -106.090185 97 28161ft 471kts
10-Oct-18 08:17 40.434489 -105.921507 105 27045ft 458kts
10-Oct-18 08:18 40.408982 -105.763990 104 25440ft 425kts
10-Oct-18 08:19 40.385612 -105.616584 104 23836ft 401kts
10-Oct-18 08:20 40.363069 -105.476788 106 22233ft 384kts
10-Oct-18 08:21 40.300667 -105.348075 134 20464ft 351kts
10-Oct-18 08:22 40.248715 -105.267214 134 18461ft 344kts
10-Oct-18 08:23 40.188668 -105.173291 134 16431ft 324kts
10-Oct-18 08:24 40.131917 -105.084357 133 15430ft 315kts
10-Oct-18 08:25 40.078088 -105.000632 133 14455ft 294kts
10-Oct-18 08:26 40.025800 -104.919541 133 13454ft 289kts
10-Oct-18 08:27 39.975722 -104.841822 133 12477ft 285kts
10-Oct-18 08:28 39.910724 -104.806123 181 11899ft 245kts
10-Oct-18 08:29 39.843040 -104.807480 184 11625ft 244kts
10-Oct-18 08:30 39.775015 -104.808467 180 10545ft 247kts
10-Oct-18 08:31 39.707589 -104.808467 180 9062ft 235kts
10-Oct-18 08:32 39.645811 -104.810345 178 8987ft 215kts
10-Oct-18 08:33 39.623487 -104.747597 88 8894ft 222kts
10-Oct-18 08:34 39.630871 -104.671471 41 7981ft 201kts
10-Oct-18 08:35 39.682857 -104.662261 2 8008ft 189kts
10-Oct-18 08:36 39.734088 -104.661625 2 7265ft 178kts
10-Oct-18 08:37 39.782010 -104.661069 2 6357ft 158kts
10-Oct-18 08:38 39.822109 -104.660592 2 5533ft 132kts
10-Oct-18 08:39 39.847820 -104.660781 338 5438ft 31kts
10-Oct-18 08:40 39.851340 -104.662371 357 5439ft 22kts
10-Oct-18 08:41 39.857165 -104.662336 0 5439ft 25kts
10-Oct-18 08:42 39.863450 -104.662274 0 5439ft 24kts
10-Oct-18 08:43 39.864763 -104.667757 270 5439ft 21kts
10-Oct-18 08:44 39.863880 -104.673081 179 5439ft 14kts

Navigation Log

Ident Type
Flight plan parsing failed, navigation log unavailable